createdAt,value
2023-03-27T00:01:30.880Z,44.87
2023-03-27T00:04:00.608Z,44.84
2023-03-27T00:06:29.113Z,44.76
2023-03-27T00:08:58.509Z,44.83
2023-03-27T00:11:27.059Z,44.48
2023-03-27T00:13:55.796Z,44.63
2023-03-27T00:16:27.106Z,44.79
2023-03-27T00:18:56.196Z,44.63
2023-03-27T00:21:26.125Z,44.57
2023-03-27T00:23:56.903Z,44.53
2023-03-27T00:26:25.552Z,44.44
2023-03-27T00:28:54.986Z,44.79
2023-03-27T00:31:23.801Z,44.72
2023-03-27T00:33:52.958Z,44.64
2023-03-27T00:36:21.622Z,44.72
2023-03-27T00:38:53.410Z,44.82
2023-03-27T00:41:22.572Z,44.73
2023-03-27T00:43:54.257Z,44.69
2023-03-27T00:46:43.484Z,44.61
2023-03-27T00:49:13.590Z,44.54
2023-03-27T00:51:43.084Z,44.54
2023-03-27T00:54:13.424Z,44.59
2023-03-27T00:56:42.261Z,44.55
2023-03-27T00:59:14.472Z,44.44
2023-03-27T01:01:43.015Z,44.86
2023-03-27T01:04:12.039Z,44.71
2023-03-27T01:06:42.493Z,44.76
2023-03-27T01:09:11.274Z,44.69
2023-03-27T01:12:54.309Z,44.79
2023-03-27T01:15:41.355Z,44.64
2023-03-27T01:18:49.887Z,44.75
2023-03-27T01:22:00.045Z,44.60
2023-03-27T01:25:32.057Z,44.77
2023-03-27T01:28:12.736Z,44.75
2023-03-27T01:30:51.900Z,44.65
2023-03-27T01:33:47.783Z,44.75
2023-03-27T01:37:06.682Z,44.82
2023-03-27T01:40:02.216Z,44.88
2023-03-27T01:42:48.140Z,44.87
2023-03-27T01:45:46.646Z,44.73
2023-03-27T01:48:42.492Z,44.69
2023-03-27T01:51:18.367Z,44.81
2023-03-27T01:53:58.664Z,44.72
2023-03-27T01:56:37.672Z,44.64
2023-03-27T01:59:16.495Z,44.67
2023-03-27T02:02:00.958Z,44.85
2023-03-27T02:04:38.945Z,44.96
2023-03-27T02:07:12.683Z,44.94
2023-03-27T02:09:51.588Z,44.90
2023-03-27T02:12:49.622Z,44.88
2023-03-27T02:15:23.647Z,44.93
2023-03-27T02:18:05.986Z,44.94
2023-03-27T02:20:35.460Z,44.93
2023-03-27T02:23:06.827Z,44.85
2023-03-27T02:25:40.121Z,44.99
2023-03-27T02:28:31.618Z,44.86
2023-03-27T02:31:32.522Z,44.93
2023-03-27T02:34:24.207Z,44.93
2023-03-27T02:37:39.755Z,44.86
2023-03-27T02:40:57.045Z,44.89
2023-03-27T02:44:06.260Z,44.91
2023-03-27T02:47:11.631Z,44.82
2023-03-27T02:49:52.901Z,44.85
2023-03-27T02:52:31.047Z,44.84
2023-03-27T02:55:06.922Z,45.03
2023-03-27T02:57:51.720Z,44.85
2023-03-27T03:00:33.960Z,44.81
2023-03-27T03:03:28.799Z,44.72
2023-03-27T03:06:07.535Z,44.74
2023-03-27T03:08:39.267Z,44.67
2023-03-27T03:11:13.623Z,44.78
2023-03-27T03:13:42.620Z,44.89
2023-03-27T03:16:11.849Z,44.71
2023-03-27T03:18:41.856Z,44.46
2023-03-27T03:21:10.667Z,44.64
2023-03-27T03:23:39.546Z,44.79
2023-03-27T03:26:08.564Z,44.68
2023-03-27T03:29:00.405Z,44.62
2023-03-27T03:31:45.782Z,44.46
2023-03-27T03:34:16.973Z,44.54
2023-03-27T03:36:49.930Z,44.54
2023-03-27T03:39:24.311Z,44.69
2023-03-27T03:41:52.888Z,44.74
2023-03-27T03:44:21.879Z,44.81
2023-03-27T03:46:50.862Z,44.65
2023-03-27T03:49:23.389Z,44.79
2023-03-27T03:52:04.515Z,44.77
2023-03-27T03:54:34.763Z,44.72
2023-03-27T03:57:03.517Z,44.61
2023-03-27T03:59:34.396Z,44.66
2023-03-27T04:02:29.020Z,44.57
2023-03-27T04:05:13.623Z,44.73
2023-03-27T04:07:42.593Z,44.74
2023-03-27T04:10:29.649Z,44.70
2023-03-27T04:12:59.822Z,44.61
2023-03-27T04:15:34.948Z,44.82
2023-03-27T04:18:04.620Z,44.72
2023-03-27T04:20:34.950Z,44.62
2023-03-27T04:23:06.136Z,44.46
2023-03-27T04:25:40.480Z,44.58
2023-03-27T04:28:16.876Z,44.73
2023-03-27T04:30:50.651Z,44.61
2023-03-27T04:33:39.578Z,44.80
2023-03-27T04:36:31.920Z,44.91
2023-03-27T04:39:23.492Z,44.59
2023-03-27T04:41:54.164Z,44.40
2023-03-27T04:44:22.894Z,44.74
2023-03-27T04:46:51.953Z,44.62
2023-03-27T04:49:20.596Z,44.62
2023-03-27T04:52:14.310Z,44.50
2023-03-27T04:54:44.147Z,44.75
2023-03-27T04:57:13.155Z,44.55
2023-03-27T04:59:41.783Z,44.56
2023-03-27T05:02:52.841Z,44.76
2023-03-27T05:05:50.626Z,44.66
2023-03-27T05:08:19.526Z,44.60
2023-03-27T05:10:48.131Z,44.43
2023-03-27T05:13:17.056Z,44.58
2023-03-27T05:15:46.060Z,44.64
2023-03-27T05:18:17.510Z,44.43
2023-03-27T05:20:51.402Z,44.52
2023-03-27T05:23:20.265Z,44.40
2023-03-27T05:25:59.250Z,44.33
2023-03-27T05:28:37.053Z,44.46
2023-03-27T05:31:05.849Z,44.47
2023-03-27T05:33:45.202Z,44.43
2023-03-27T05:36:15.624Z,44.54
2023-03-27T05:38:45.025Z,44.48
2023-03-27T05:41:16.332Z,44.53
2023-03-27T05:43:51.315Z,44.47
2023-03-27T05:46:21.727Z,44.59
2023-03-27T05:48:59.810Z,44.53
2023-03-27T05:51:29.497Z,44.62
2023-03-27T05:53:58.566Z,44.55
2023-03-27T05:56:41.031Z,44.81
2023-03-27T05:59:09.756Z,44.64
2023-03-27T06:01:40.219Z,44.35
2023-03-27T06:04:09.611Z,44.58
2023-03-27T06:06:56.367Z,44.47
2023-03-27T06:09:26.116Z,44.52
2023-03-27T06:12:16.495Z,44.51
2023-03-27T06:14:45.717Z,44.69
2023-03-27T06:17:27.786Z,44.70
2023-03-27T06:20:11.549Z,44.48
2023-03-27T06:22:46.827Z,44.60
2023-03-27T06:25:18.807Z,44.56
2023-03-27T06:27:49.927Z,44.52
2023-03-27T06:30:21.804Z,44.64
2023-03-27T06:33:10.435Z,44.37
2023-03-27T06:35:39.819Z,44.51
2023-03-27T06:38:18.280Z,44.41
2023-03-27T06:40:47.499Z,44.48
2023-03-27T06:43:22.557Z,44.35
2023-03-27T06:46:01.762Z,44.31
2023-03-27T06:49:01.880Z,44.36
2023-03-27T06:51:31.675Z,44.37
2023-03-27T06:54:00.366Z,44.58
2023-03-27T06:56:31.087Z,44.32
2023-03-27T06:59:32.049Z,44.60
2023-03-27T07:02:04.354Z,44.72
2023-03-27T07:04:35.664Z,44.95
2023-03-27T07:07:24.751Z,44.92
2023-03-27T07:09:53.144Z,44.65
2023-03-27T07:12:27.239Z,44.91
2023-03-27T07:14:56.521Z,44.66
2023-03-27T07:17:41.803Z,44.83
2023-03-27T07:20:16.580Z,44.69
2023-03-27T07:22:45.460Z,44.59
2023-03-27T07:25:37.451Z,44.31
2023-03-27T07:28:14.138Z,44.38
2023-03-27T07:30:42.607Z,44.17
2023-03-27T07:33:13.186Z,44.33
2023-03-27T07:35:46.627Z,44.05
2023-03-27T07:38:36.089Z,43.78
2023-03-27T07:41:14.715Z,44.14
2023-03-27T07:43:49.363Z,44.00
2023-03-27T07:46:24.403Z,43.81
2023-03-27T07:48:56.812Z,43.96
2023-03-27T07:51:27.708Z,43.94
2023-03-27T07:53:58.957Z,44.02
2023-03-27T07:56:34.326Z,43.83
2023-03-27T07:59:33.482Z,43.86
2023-03-27T08:02:11.551Z,43.89
2023-03-27T08:04:42.584Z,43.92
2023-03-27T08:07:12.134Z,43.79
2023-03-27T08:09:43.946Z,43.93
2023-03-27T08:12:12.553Z,43.86
2023-03-27T08:14:47.266Z,44.00
2023-03-27T08:17:29.143Z,43.97
2023-03-27T08:19:58.363Z,44.05
2023-03-27T08:22:28.607Z,43.92
2023-03-27T08:25:17.803Z,44.09
2023-03-27T08:27:46.890Z,44.02
2023-03-27T08:30:19.329Z,43.96
2023-03-27T08:32:47.849Z,44.06
2023-03-27T08:35:17.021Z,43.89
2023-03-27T08:37:45.552Z,44.03
2023-03-27T08:40:34.668Z,44.09
2023-03-27T08:43:43.178Z,43.75
2023-03-27T08:46:36.914Z,43.75
2023-03-27T08:49:19.963Z,43.70
2023-03-27T08:52:19.701Z,43.66
2023-03-27T08:55:01.774Z,43.37
2023-03-27T08:57:41.037Z,43.00
2023-03-27T09:00:25.454Z,43.28
2023-03-27T09:03:29.045Z,42.85
2023-03-27T09:06:08.570Z,42.63
2023-03-27T09:09:07.362Z,42.57
2023-03-27T09:11:49.286Z,42.14
2023-03-27T09:14:33.134Z,41.38
2023-03-27T09:17:10.034Z,41.31
2023-03-27T09:19:49.729Z,41.36
2023-03-27T09:22:31.604Z,41.56
2023-03-27T09:25:38.087Z,40.71
2023-03-27T09:28:32.653Z,40.74
2023-03-27T09:31:34.940Z,40.34
2023-03-27T09:34:12.341Z,40.57
2023-03-27T09:36:42.188Z,40.47
2023-03-27T09:39:17.805Z,40.48
2023-03-27T09:42:09.429Z,39.77
2023-03-27T09:44:41.729Z,39.76
2023-03-27T09:47:21.498Z,39.86
2023-03-27T09:50:21.498Z,39.80
2023-03-27T09:53:23.148Z,39.70
2023-03-27T09:56:13.117Z,39.68
2023-03-27T09:58:49.360Z,39.51
2023-03-27T10:01:34.825Z,39.73
2023-03-27T10:04:23.351Z,39.71
2023-03-27T10:07:07.076Z,39.49
2023-03-27T10:10:04.210Z,39.52
2023-03-27T10:12:36.672Z,39.29
2023-03-27T10:15:08.072Z,39.28
2023-03-27T10:17:38.794Z,39.05
2023-03-27T10:20:20.236Z,39.12
2023-03-27T10:23:07.181Z,39.28
2023-03-27T10:25:42.111Z,39.11
2023-03-27T10:28:27.324Z,38.95
2023-03-27T10:31:32.375Z,39.23
2023-03-27T10:34:32.874Z,38.82
2023-03-27T10:37:34.741Z,38.68
2023-03-27T10:40:25.830Z,38.77
2023-03-27T10:43:02.144Z,38.08
2023-03-27T10:45:31.011Z,38.56
2023-03-27T10:48:01.640Z,37.95
2023-03-27T10:50:38.574Z,38.25
2023-03-27T10:53:49.369Z,37.76
2023-03-27T10:56:25.273Z,36.97
2023-03-27T10:59:25.469Z,35.84
2023-03-27T11:02:39.149Z,35.56
2023-03-27T11:05:11.360Z,35.89
2023-03-27T11:07:48.185Z,35.11
2023-03-27T11:10:44.377Z,35.18
2023-03-27T11:13:44.061Z,35.93
2023-03-27T11:16:39.647Z,34.69
2023-03-27T11:19:52.626Z,34.26
2023-03-27T11:22:44.935Z,34.39
2023-03-27T11:25:40.223Z,34.42
2023-03-27T11:28:31.605Z,34.45
2023-03-27T11:31:38.595Z,35.29
2023-03-27T11:34:34.462Z,34.96
2023-03-27T11:37:24.196Z,31.91
2023-03-27T11:40:09.573Z,30.82
2023-03-27T11:42:42.842Z,31.76
2023-03-27T11:45:18.556Z,32.05
2023-03-27T11:48:02.387Z,32.70
2023-03-27T11:51:07.152Z,33.11
2023-03-27T11:53:38.708Z,33.16
2023-03-27T11:56:29.376Z,33.32
2023-03-27T11:59:48.772Z,33.00
2023-03-27T12:02:49.661Z,32.26
2023-03-27T12:05:52.677Z,32.08
2023-03-27T12:08:52.696Z,31.98
2023-03-27T12:11:21.533Z,31.19
2023-03-27T12:14:40.088Z,31.43
2023-03-27T12:17:41.734Z,31.07
2023-03-27T12:20:53.828Z,31.01
2023-03-27T12:23:47.057Z,30.59
2023-03-27T12:26:48.389Z,29.59
2023-03-27T12:30:23.047Z,29.34
2023-03-27T12:33:14.314Z,29.61
2023-03-27T12:35:47.387Z,29.72
2023-03-27T12:38:42.789Z,29.78
2023-03-27T12:41:44.196Z,29.79
2023-03-27T12:44:32.074Z,30.05
2023-03-27T12:47:14.570Z,31.04
2023-03-27T12:49:48.076Z,30.38
2023-03-27T12:52:28.722Z,30.95
2023-03-27T12:55:18.621Z,31.01
2023-03-27T12:58:00.138Z,31.31
2023-03-27T13:01:01.064Z,31.36
2023-03-27T13:04:59.156Z,31.62
2023-03-27T13:07:46.936Z,31.20
2023-03-27T13:10:38.770Z,31.24
2023-03-27T13:13:49.969Z,31.43
2023-03-27T13:16:27.164Z,31.09
2023-03-27T13:19:37.897Z,30.72
2023-03-27T13:22:58.096Z,31.41
2023-03-27T13:25:40.014Z,31.39
2023-03-27T13:28:34.594Z,31.29
2023-03-27T13:31:34.612Z,31.40
2023-03-27T13:34:27.503Z,31.53
2023-03-27T13:37:36.921Z,31.10
2023-03-27T13:40:24.562Z,30.76
2023-03-27T13:42:59.813Z,30.43
2023-03-27T13:45:52.393Z,30.11
2023-03-27T13:49:06.192Z,29.97
2023-03-27T13:52:32.592Z,30.15
2023-03-27T13:55:17.975Z,30.05
2023-03-27T13:58:20.349Z,30.05
2023-03-27T14:01:36.240Z,30.20
2023-03-27T14:04:51.392Z,30.28
2023-03-27T14:07:54.079Z,29.70
2023-03-27T14:10:49.868Z,29.89
2023-03-27T14:13:54.794Z,28.87
2023-03-27T14:16:51.628Z,29.94
2023-03-27T14:19:41.996Z,30.29
2023-03-27T14:22:30.428Z,30.30
2023-03-27T14:25:04.966Z,30.46
2023-03-27T14:28:02.819Z,30.46
2023-03-27T14:30:46.150Z,30.52
2023-03-27T14:33:34.760Z,30.64
2023-03-27T14:36:05.788Z,30.47
2023-03-27T14:38:38.689Z,30.49
2023-03-27T14:41:22.485Z,29.61
2023-03-27T14:43:57.108Z,29.79
2023-03-27T14:46:26.988Z,29.62
2023-03-27T14:48:58.878Z,29.74
2023-03-27T14:51:48.265Z,29.74
2023-03-27T14:54:44.560Z,29.66
2023-03-27T14:57:22.451Z,29.38
2023-03-27T14:59:55.797Z,28.47
2023-03-27T15:02:35.025Z,28.06
2023-03-27T15:05:14.014Z,28.49
2023-03-27T15:07:49.198Z,28.53
2023-03-27T15:10:37.439Z,28.08
2023-03-27T15:13:11.072Z,27.95
2023-03-27T15:15:47.205Z,27.56
2023-03-27T15:18:28.721Z,27.56
2023-03-27T15:21:02.448Z,27.36
2023-03-27T15:23:50.222Z,27.23
2023-03-27T15:26:26.228Z,27.27
2023-03-27T15:29:02.049Z,27.47
2023-03-27T15:31:31.150Z,26.69
2023-03-27T15:34:34.394Z,26.38
2023-03-27T15:37:06.080Z,26.26
2023-03-27T15:39:35.012Z,25.93
2023-03-27T15:42:19.799Z,25.71
2023-03-27T15:44:48.694Z,26.13
2023-03-27T15:47:28.916Z,26.33
2023-03-27T15:50:19.924Z,26.59
2023-03-27T15:52:51.044Z,26.70
2023-03-27T15:55:45.045Z,26.19
2023-03-27T15:58:52.790Z,25.94
2023-03-27T16:01:32.446Z,25.70
2023-03-27T16:04:05.986Z,26.00
2023-03-27T16:06:37.837Z,25.49
2023-03-27T16:09:28.648Z,26.05
2023-03-27T16:11:58.294Z,25.32
2023-03-27T16:14:48.428Z,26.27
2023-03-27T16:17:25.375Z,26.37
2023-03-27T16:19:56.397Z,26.19
2023-03-27T16:22:32.952Z,26.17
2023-03-27T16:25:05.368Z,26.31
2023-03-27T16:27:40.907Z,26.95
2023-03-27T16:30:20.624Z,26.98
2023-03-27T16:32:49.654Z,26.57
2023-03-27T16:35:18.548Z,26.91
2023-03-27T16:37:47.984Z,27.09
2023-03-27T16:40:16.579Z,26.40
2023-03-27T16:42:45.617Z,26.11
2023-03-27T16:45:14.118Z,25.82
2023-03-27T16:47:43.173Z,26.35
2023-03-27T16:50:18.978Z,26.72
2023-03-27T16:52:47.938Z,27.12
2023-03-27T16:55:16.519Z,26.62
2023-03-27T16:57:46.819Z,26.96
2023-03-27T17:00:16.775Z,27.14
2023-03-27T17:02:47.151Z,27.26
2023-03-27T17:05:16.311Z,27.48
2023-03-27T17:07:47.052Z,27.39
2023-03-27T17:10:15.943Z,27.72
2023-03-27T17:12:44.753Z,27.60
2023-03-27T17:15:15.270Z,27.55
2023-03-27T17:17:45.309Z,27.49
2023-03-27T17:20:13.896Z,27.95
2023-03-27T17:22:42.896Z,27.25
2023-03-27T17:25:11.794Z,27.94
2023-03-27T17:27:40.827Z,28.07
2023-03-27T17:30:09.849Z,28.65
2023-03-27T17:32:38.632Z,28.60
2023-03-27T17:35:08.086Z,28.79
2023-03-27T17:37:36.880Z,29.02
2023-03-27T17:40:09.831Z,28.60
2023-03-27T17:42:38.820Z,28.96
2023-03-27T17:45:07.702Z,29.35
2023-03-27T17:47:36.706Z,29.45
2023-03-27T17:50:05.940Z,29.05
2023-03-27T17:52:35.371Z,29.45
2023-03-27T17:55:03.976Z,29.32
2023-03-27T17:57:33.134Z,28.96
2023-03-27T18:00:01.780Z,29.34
2023-03-27T18:02:30.735Z,29.13
2023-03-27T18:05:00.432Z,29.18
2023-03-27T18:07:29.719Z,28.91
2023-03-27T18:09:58.218Z,29.18
2023-03-27T18:12:26.939Z,28.13
2023-03-27T18:14:55.550Z,28.61
2023-03-27T18:17:24.632Z,29.01
2023-03-27T18:19:53.039Z,28.39
2023-03-27T18:22:22.147Z,27.91
2023-03-27T18:24:50.625Z,28.13
2023-03-27T18:27:19.749Z,28.39
2023-03-27T18:29:48.212Z,28.36
2023-03-27T18:32:17.057Z,28.23
2023-03-27T18:34:45.459Z,27.69
2023-03-27T18:37:14.467Z,28.10
2023-03-27T18:39:42.956Z,27.80
2023-03-27T18:42:11.838Z,28.04
2023-03-27T18:44:42.077Z,27.83
2023-03-27T18:47:11.172Z,27.55
2023-03-27T18:49:39.485Z,27.48
2023-03-27T18:52:10.157Z,27.01
2023-03-27T18:54:38.856Z,27.63
2023-03-27T18:57:07.989Z,27.86
2023-03-27T18:59:37.155Z,27.80
2023-03-27T19:02:06.311Z,27.86
2023-03-27T19:04:35.028Z,27.73
2023-03-27T19:07:04.146Z,27.98
2023-03-27T19:09:40.817Z,28.23
2023-03-27T19:12:11.247Z,28.49
2023-03-27T19:15:02.200Z,28.71
2023-03-27T19:18:09.454Z,28.91
2023-03-27T19:21:01.076Z,29.01
2023-03-27T19:23:59.236Z,29.26
2023-03-27T19:26:35.135Z,29.04
2023-03-27T19:29:04.367Z,29.13
2023-03-27T19:31:32.947Z,28.98
2023-03-27T19:34:04.944Z,29.44
2023-03-27T19:36:33.727Z,29.24
2023-03-27T19:39:04.576Z,29.37
2023-03-27T19:41:33.049Z,29.32
2023-03-27T19:44:01.868Z,29.29
2023-03-27T19:46:30.618Z,29.23
2023-03-27T19:48:59.520Z,29.20
2023-03-27T19:51:42.027Z,29.27
2023-03-27T19:54:14.222Z,29.12
2023-03-27T19:56:42.780Z,29.03
2023-03-27T19:59:17.994Z,28.86
2023-03-27T20:01:53.121Z,28.85
2023-03-27T20:04:22.088Z,28.86
2023-03-27T20:06:50.654Z,28.71
2023-03-27T20:09:19.577Z,28.73
2023-03-27T20:11:48.042Z,28.63
2023-03-27T20:14:16.925Z,28.83
2023-03-27T20:16:47.019Z,29.01
2023-03-27T20:19:17.076Z,28.92
2023-03-27T20:21:45.510Z,28.80
2023-03-27T20:24:18.506Z,28.85
2023-03-27T20:26:57.619Z,28.70
2023-03-27T20:29:28.538Z,28.73
2023-03-27T20:31:56.993Z,28.73
2023-03-27T20:34:25.863Z,28.83
2023-03-27T20:36:55.054Z,28.88
2023-03-27T20:39:47.361Z,29.22
2023-03-27T20:42:17.709Z,29.13
2023-03-27T20:44:47.368Z,29.36
2023-03-27T20:47:19.362Z,29.23
2023-03-27T20:49:49.458Z,29.33
2023-03-27T20:52:19.530Z,29.02
2023-03-27T20:54:48.216Z,29.20
2023-03-27T20:57:19.404Z,28.96
2023-03-27T20:59:48.481Z,29.21
2023-03-27T21:02:18.532Z,29.16
2023-03-27T21:04:47.975Z,29.31
2023-03-27T21:07:17.022Z,28.70
2023-03-27T21:09:48.640Z,28.91
2023-03-27T21:12:17.118Z,29.11
2023-03-27T21:14:45.812Z,28.82
2023-03-27T21:17:14.237Z,28.81
2023-03-27T21:19:43.094Z,28.33
2023-03-27T21:22:11.775Z,27.62
2023-03-27T21:24:42.593Z,27.66
2023-03-27T21:27:10.998Z,26.30
2023-03-27T21:29:39.876Z,26.35
2023-03-27T21:32:08.422Z,26.63
2023-03-27T21:34:37.443Z,26.54
2023-03-27T21:37:05.885Z,25.86
2023-03-27T21:39:34.823Z,25.83
2023-03-27T21:42:03.310Z,25.87
2023-03-27T21:44:32.194Z,25.60
2023-03-27T21:47:00.645Z,25.65
2023-03-27T21:49:29.512Z,25.74
2023-03-27T21:51:57.881Z,26.03
2023-03-27T21:54:26.696Z,26.65
2023-03-27T21:56:55.087Z,26.51
2023-03-27T21:59:23.984Z,26.31
2023-03-27T22:01:54.467Z,26.34
2023-03-27T22:04:23.378Z,26.52
2023-03-27T22:06:52.246Z,26.63
2023-03-27T22:09:21.389Z,26.71
2023-03-27T22:11:49.837Z,26.25
2023-03-27T22:14:18.583Z,26.17
2023-03-27T22:16:47.025Z,25.98
2023-03-27T22:19:15.765Z,26.30
2023-03-27T22:21:44.234Z,25.88
2023-03-27T22:24:12.932Z,25.92
2023-03-27T22:26:41.346Z,25.74
2023-03-27T22:29:10.086Z,26.16
2023-03-27T22:31:38.627Z,26.23
2023-03-27T22:34:07.772Z,26.26
2023-03-27T22:36:36.235Z,26.12
2023-03-27T22:39:05.758Z,26.16
2023-03-27T22:41:34.181Z,25.88
2023-03-27T22:44:02.924Z,25.72
2023-03-27T22:46:31.305Z,25.52
2023-03-27T22:49:00.044Z,25.12
2023-03-27T22:51:29.482Z,25.02
2023-03-27T22:53:58.368Z,24.64
2023-03-27T22:56:26.714Z,24.58
2023-03-27T22:58:55.727Z,24.49
2023-03-27T23:01:24.129Z,24.62
2023-03-27T23:03:52.944Z,24.35
2023-03-27T23:06:23.378Z,24.63
2023-03-27T23:08:52.248Z,24.27
2023-03-27T23:11:20.801Z,24.19
2023-03-27T23:13:49.860Z,24.03
2023-03-27T23:16:18.269Z,24.00
2023-03-27T23:18:47.074Z,23.80
2023-03-27T23:21:18.095Z,23.74
2023-03-27T23:23:47.200Z,23.81
2023-03-27T23:26:15.913Z,23.87
2023-03-27T23:28:44.803Z,23.72
2023-03-27T23:31:18.168Z,23.70
2023-03-27T23:33:48.917Z,23.85
2023-03-27T23:36:22.981Z,23.55
2023-03-27T23:38:52.049Z,23.72
2023-03-27T23:41:20.812Z,23.82
2023-03-27T23:43:49.870Z,23.78
2023-03-27T23:46:18.467Z,24.16
2023-03-27T23:48:47.565Z,23.81
2023-03-27T23:51:16.552Z,23.86
2023-03-27T23:53:45.285Z,23.95
2023-03-27T23:56:13.838Z,24.23
2023-03-27T23:58:42.759Z,23.91
